createdAt,value
2019-04-27T00:01:50.264Z,11.80
2019-04-27T00:04:40.782Z,11.80
2019-04-27T00:07:30.383Z,11.80
2019-04-27T00:10:25.250Z,11.80
2019-04-27T00:12:57.294Z,11.80
2019-04-27T00:15:36.629Z,11.80
2019-04-27T00:18:23.317Z,12.00
2019-04-27T00:21:00.705Z,12.00
2019-04-27T00:23:33.980Z,12.00
2019-04-27T00:26:07.404Z,12.00
2019-04-27T00:28:40.284Z,12.00
2019-04-27T00:31:13.425Z,11.90
2019-04-27T00:33:46.924Z,11.90
2019-04-27T00:36:23.182Z,12.00
2019-04-27T00:38:56.406Z,12.00
2019-04-27T00:41:29.445Z,11.90
2019-04-27T00:44:03.438Z,11.80
2019-04-27T00:46:37.065Z,11.80
2019-04-27T00:49:10.027Z,11.80
2019-04-27T00:51:43.460Z,11.70
2019-04-27T00:54:16.628Z,11.80
2019-04-27T00:56:54.306Z,11.70
2019-04-27T00:59:27.287Z,11.50
2019-04-27T01:02:03.768Z,11.40
2019-04-27T01:04:37.468Z,11.20
2019-04-27T01:07:11.707Z,11.20
2019-04-27T01:09:44.908Z,11.00
2019-04-27T01:12:19.507Z,11.10
2019-04-27T01:14:53.514Z,11.00
2019-04-27T01:17:28.839Z,10.90
2019-04-27T01:20:01.738Z,10.90
2019-04-27T01:22:35.188Z,10.80
2019-04-27T01:25:08.776Z,11.00
2019-04-27T01:27:46.550Z,11.00
2019-04-27T01:30:24.028Z,10.90
2019-04-27T01:32:57.229Z,10.90
2019-04-27T01:35:30.268Z,10.80
2019-04-27T01:38:03.206Z,10.80
2019-04-27T01:40:36.209Z,10.80
2019-04-27T01:43:09.209Z,10.90
2019-04-27T01:45:42.370Z,10.90
2019-04-27T01:48:23.714Z,10.80
2019-04-27T01:50:50.669Z,10.90
2019-04-27T01:53:23.610Z,11.00
2019-04-27T01:55:56.510Z,11.10
2019-04-27T01:58:29.490Z,11.10
2019-04-27T02:01:23.976Z,11.10
2019-04-27T02:04:14.358Z,11.10
2019-04-27T02:06:49.131Z,10.90
2019-04-27T02:09:22.210Z,10.80
2019-04-27T02:11:55.613Z,10.60
2019-04-27T02:14:28.857Z,10.60
2019-04-27T02:17:02.470Z,10.30
2019-04-27T02:19:35.292Z,10.40
2019-04-27T02:22:08.682Z,10.40
2019-04-27T02:24:42.189Z,10.50
2019-04-27T02:27:16.710Z,10.50
2019-04-27T02:29:59.212Z,10.50
2019-04-27T02:32:34.230Z,10.30
2019-04-27T02:35:09.364Z,10.10
2019-04-27T02:37:43.031Z,9.90
2019-04-27T02:40:15.891Z,9.70
2019-04-27T02:42:54.253Z,9.60
2019-04-27T02:45:25.151Z,9.40
2019-04-27T02:47:59.853Z,9.20
2019-04-27T02:50:33.052Z,9.20
2019-04-27T02:53:06.031Z,9.20
2019-04-27T02:55:39.783Z,9.10
2019-04-27T02:58:13.262Z,9.20
2019-04-27T03:00:46.291Z,9.50
2019-04-27T03:03:20.358Z,9.80
2019-04-27T03:05:53.456Z,9.70
2019-04-27T03:08:26.652Z,9.60
2019-04-27T03:11:01.174Z,9.50
2019-04-27T03:13:52.100Z,9.50
2019-04-27T03:16:29.648Z,9.50
2019-04-27T03:19:18.098Z,9.40
2019-04-27T03:21:59.310Z,9.40
2019-04-27T03:24:49.928Z,9.40
2019-04-27T03:27:24.891Z,9.40
2019-04-27T03:29:59.694Z,9.40
2019-04-27T03:32:32.936Z,9.60
2019-04-27T03:35:06.171Z,9.70
2019-04-27T03:37:40.365Z,10.00
2019-04-27T03:40:13.992Z,10.10
2019-04-27T03:42:50.134Z,9.90
2019-04-27T03:45:23.234Z,9.80
2019-04-27T03:47:56.150Z,9.90
2019-04-27T03:50:36.930Z,9.90
2019-04-27T03:53:11.451Z,9.90
2019-04-27T03:55:45.910Z,9.90
2019-04-27T03:58:26.311Z,9.90
2019-04-27T04:01:00.107Z,9.80
2019-04-27T04:03:33.591Z,9.90
2019-04-27T04:06:06.489Z,9.70
2019-04-27T04:08:39.865Z,9.50
2019-04-27T04:11:19.815Z,9.40
2019-04-27T04:14:00.360Z,9.20
2019-04-27T04:16:35.493Z,9.20
2019-04-27T04:19:10.350Z,9.30
2019-04-27T04:21:43.349Z,9.20
2019-04-27T04:24:19.702Z,9.10
2019-04-27T04:26:51.467Z,9.20
2019-04-27T04:29:24.329Z,9.30
2019-04-27T04:32:00.166Z,9.20
2019-04-27T04:34:32.498Z,9.10
2019-04-27T04:37:05.297Z,9.10
2019-04-27T04:39:40.395Z,9.10
2019-04-27T04:42:30.153Z,9.20
2019-04-27T04:45:10.767Z,9.20
2019-04-27T04:47:45.604Z,9.30
2019-04-27T04:50:20.271Z,9.40
2019-04-27T04:52:52.989Z,9.50
2019-04-27T04:55:26.030Z,9.70
2019-04-27T04:57:59.154Z,9.70
2019-04-27T05:00:32.303Z,9.80
2019-04-27T05:03:05.310Z,10.20
2019-04-27T05:05:39.496Z,10.30
2019-04-27T05:08:13.749Z,10.30
2019-04-27T05:10:47.232Z,10.20
2019-04-27T05:13:20.368Z,10.30
2019-04-27T05:15:53.269Z,10.30
2019-04-27T05:18:26.177Z,10.30
2019-04-27T05:21:09.446Z,10.40
2019-04-27T05:23:42.249Z,10.60
2019-04-27T05:26:15.508Z,10.30
2019-04-27T05:28:49.190Z,10.20
2019-04-27T05:31:22.729Z,10.00
2019-04-27T05:33:55.769Z,9.90
2019-04-27T05:36:29.635Z,9.80
2019-04-27T05:39:02.936Z,9.90
2019-04-27T05:41:37.489Z,9.70
2019-04-27T05:44:13.019Z,9.90
2019-04-27T05:46:58.640Z,10.20
2019-04-27T05:49:36.383Z,10.30
2019-04-27T05:54:48.886Z,10.00
2019-04-27T05:57:21.990Z,10.20
2019-04-27T05:59:55.051Z,10.30
2019-04-27T06:02:30.197Z,10.10
2019-04-27T06:05:03.928Z,10.00
2019-04-27T06:07:36.888Z,10.10
2019-04-27T06:10:09.989Z,10.00
2019-04-27T06:12:42.868Z,9.90
2019-04-27T06:15:15.841Z,9.90
2019-04-27T06:17:48.829Z,9.80
2019-04-27T06:20:21.694Z,9.90
2019-04-27T06:22:54.616Z,9.60
2019-04-27T06:25:30.340Z,9.60
2019-04-27T06:28:02.250Z,9.70
2019-04-27T06:30:35.202Z,9.70
2019-04-27T06:33:09.405Z,9.70
2019-04-27T06:35:42.761Z,9.70
2019-04-27T06:38:16.268Z,9.90
2019-04-27T06:40:49.149Z,10.00
2019-04-27T06:43:22.169Z,10.20
2019-04-27T06:45:55.127Z,10.40
2019-04-27T06:48:29.642Z,10.40
2019-04-27T06:51:05.557Z,10.40
2019-04-27T06:53:39.307Z,10.60
2019-04-27T06:56:12.408Z,10.70
2019-04-27T06:58:46.258Z,10.80
2019-04-27T07:01:20.898Z,11.10
2019-04-27T07:03:54.168Z,11.60
2019-04-27T07:06:28.595Z,11.90
2019-04-27T07:09:01.998Z,12.30
2019-04-27T07:11:34.888Z,11.90
2019-04-27T07:14:11.236Z,11.70
2019-04-27T07:16:42.468Z,11.90
2019-04-27T07:19:15.807Z,12.20
2019-04-27T07:21:49.798Z,12.60
2019-04-27T07:24:23.533Z,13.00
2019-04-27T07:26:56.995Z,12.80
2019-04-27T07:29:29.955Z,13.30
2019-04-27T07:32:02.804Z,13.30
2019-04-27T07:34:36.016Z,13.00
2019-04-27T07:37:09.352Z,13.20
2019-04-27T07:39:43.667Z,13.70
2019-04-27T07:42:16.983Z,14.20
2019-04-27T07:44:52.070Z,14.40
2019-04-27T07:47:26.908Z,14.40
2019-04-27T07:50:01.480Z,14.40
2019-04-27T07:52:37.868Z,14.90
2019-04-27T07:55:09.848Z,15.30
2019-04-27T07:57:42.707Z,15.40
2019-04-27T08:00:16.600Z,15.10
2019-04-27T08:02:49.568Z,14.80
2019-04-27T08:05:22.617Z,14.80
2019-04-27T08:07:55.549Z,14.70
2019-04-27T08:10:29.211Z,14.60
2019-04-27T08:13:02.248Z,14.90
2019-04-27T08:15:35.131Z,14.90
2019-04-27T08:18:08.995Z,15.00
2019-04-27T08:20:42.067Z,15.30
2019-04-27T08:23:15.268Z,15.50
2019-04-27T08:25:48.962Z,15.60
2019-04-27T08:28:28.773Z,15.50
2019-04-27T08:31:11.047Z,15.50
2019-04-27T08:33:44.548Z,15.10
2019-04-27T08:36:19.002Z,14.90
2019-04-27T08:38:52.087Z,15.60
2019-04-27T08:41:25.488Z,15.50
2019-04-27T08:43:58.777Z,15.90
2019-04-27T08:46:31.934Z,16.20
2019-04-27T08:49:04.795Z,16.70
2019-04-27T08:51:39.214Z,16.60
2019-04-27T08:54:12.468Z,16.50
2019-04-27T08:56:45.347Z,16.30
2019-04-27T08:59:19.427Z,16.40
2019-04-27T09:01:53.208Z,16.30
2019-04-27T09:04:26.227Z,16.30
2019-04-27T09:07:03.800Z,16.80
2019-04-27T09:09:39.671Z,16.40
2019-04-27T09:12:30.667Z,17.60
2019-04-27T09:15:14.228Z,17.70
2019-04-27T09:17:54.908Z,17.70
2019-04-27T09:20:39.095Z,17.30
2019-04-27T09:23:12.248Z,17.70
2019-04-27T09:25:45.628Z,17.60
2019-04-27T09:28:21.575Z,17.10
2019-04-27T09:30:54.389Z,16.10
2019-04-27T09:33:27.533Z,15.80
2019-04-27T09:36:00.895Z,15.60
2019-04-27T09:38:35.660Z,15.30
2019-04-27T09:41:08.508Z,15.50
2019-04-27T09:43:41.388Z,15.40
2019-04-27T09:46:15.736Z,15.50
2019-04-27T09:48:49.187Z,15.60
2019-04-27T09:51:22.227Z,15.50
2019-04-27T09:53:56.319Z,15.50
2019-04-27T09:56:29.448Z,15.10
2019-04-27T09:59:03.123Z,16.10
2019-04-27T10:01:36.168Z,17.10
2019-04-27T10:04:09.347Z,17.40
2019-04-27T10:06:42.868Z,17.60
2019-04-27T10:09:15.993Z,16.70
2019-04-27T10:11:49.267Z,16.00
2019-04-27T10:14:22.467Z,15.60
2019-04-27T10:16:55.832Z,15.20
2019-04-27T10:19:32.884Z,15.00
2019-04-27T10:22:05.683Z,15.20
2019-04-27T10:24:39.058Z,16.10
2019-04-27T10:27:11.968Z,17.00
2019-04-27T10:29:46.739Z,17.40
2019-04-27T10:32:20.378Z,17.20
2019-04-27T10:34:54.255Z,17.90
2019-04-27T10:37:27.272Z,18.20
2019-04-27T10:40:00.105Z,18.20
2019-04-27T10:42:33.236Z,18.30
2019-04-27T10:45:06.537Z,18.20
2019-04-27T10:47:39.592Z,18.20
2019-04-27T10:50:12.688Z,17.40
2019-04-27T10:52:53.205Z,16.60
2019-04-27T10:55:20.428Z,16.20
2019-04-27T10:57:53.288Z,15.80
2019-04-27T11:00:37.361Z,15.80
2019-04-27T11:03:10.430Z,15.60
2019-04-27T11:05:43.245Z,15.30
2019-04-27T11:08:16.766Z,15.50
2019-04-27T11:10:50.168Z,15.60
2019-04-27T11:13:23.396Z,15.60
2019-04-27T11:15:56.508Z,15.60
2019-04-27T11:18:29.787Z,15.80
2019-04-27T11:21:03.162Z,15.80
2019-04-27T11:23:36.908Z,15.70
2019-04-27T11:26:09.776Z,15.70
2019-04-27T11:28:42.850Z,15.80
2019-04-27T11:31:17.271Z,15.90
2019-04-27T11:33:50.448Z,16.10
2019-04-27T11:36:23.275Z,16.40
2019-04-27T11:39:04.012Z,16.60
2019-04-27T11:41:38.707Z,17.10
2019-04-27T11:44:11.768Z,17.50
2019-04-27T11:46:45.517Z,17.00
2019-04-27T11:49:20.188Z,17.60
2019-04-27T11:51:53.316Z,18.10
2019-04-27T11:54:27.586Z,18.50
2019-04-27T11:57:01.131Z,18.90
2019-04-27T11:59:34.133Z,18.90
2019-04-27T12:02:07.608Z,19.10
2019-04-27T12:04:40.491Z,18.50
2019-04-27T12:07:13.528Z,18.00
2019-04-27T12:09:48.048Z,17.50
2019-04-27T12:12:21.873Z,17.30
2019-04-27T12:14:56.228Z,16.80
2019-04-27T12:17:29.316Z,16.20
2019-04-27T12:20:02.466Z,15.90
2019-04-27T12:22:35.588Z,15.70
2019-04-27T12:25:08.633Z,15.70
2019-04-27T12:27:59.347Z,15.90
2019-04-27T12:30:33.868Z,16.00
2019-04-27T12:33:06.728Z,15.90
2019-04-27T12:35:39.672Z,16.10
2019-04-27T12:38:12.809Z,16.20
2019-04-27T12:40:46.582Z,16.50
2019-04-27T12:43:19.928Z,16.80
2019-04-27T12:45:52.950Z,16.70
2019-04-27T12:48:26.489Z,16.80
2019-04-27T12:50:59.229Z,17.10
2019-04-27T12:53:47.621Z,16.90
2019-04-27T12:56:11.236Z,16.40
2019-04-27T12:58:47.500Z,16.20
2019-04-27T13:01:22.018Z,16.60
2019-04-27T13:03:58.888Z,16.80
2019-04-27T13:06:30.787Z,16.40
2019-04-27T13:09:03.724Z,16.70
2019-04-27T13:11:36.720Z,17.10
2019-04-27T13:14:09.587Z,17.00
2019-04-27T13:16:42.993Z,17.10
2019-04-27T13:19:16.236Z,16.40
2019-04-27T13:21:49.158Z,16.90
2019-04-27T13:24:22.047Z,16.60
2019-04-27T13:26:55.939Z,17.30
2019-04-27T13:29:29.389Z,17.80
2019-04-27T13:32:02.624Z,18.00
2019-04-27T13:34:36.379Z,17.40
2019-04-27T13:37:27.827Z,17.30
2019-04-27T13:40:07.073Z,17.10
2019-04-27T13:42:39.938Z,16.90
2019-04-27T13:45:16.489Z,16.70
2019-04-27T13:47:56.118Z,16.90
2019-04-27T13:50:33.507Z,17.20
2019-04-27T13:53:08.380Z,17.20
2019-04-27T13:55:41.188Z,16.40
2019-04-27T13:58:14.369Z,15.90
2019-04-27T14:00:47.316Z,15.60
2019-04-27T14:03:21.054Z,15.50
2019-04-27T14:05:56.744Z,15.40
2019-04-27T14:08:29.558Z,15.20
2019-04-27T14:11:03.044Z,15.20
2019-04-27T14:13:36.071Z,15.30
2019-04-27T14:16:09.731Z,15.20
2019-04-27T14:18:43.051Z,15.00
2019-04-27T14:21:16.028Z,14.80
2019-04-27T14:23:49.048Z,14.80
2019-04-27T14:26:22.647Z,14.80
2019-04-27T14:28:55.668Z,15.00
2019-04-27T14:31:29.205Z,15.20
2019-04-27T14:34:02.147Z,15.40
2019-04-27T14:36:35.421Z,15.50
2019-04-27T14:39:09.888Z,15.60
2019-04-27T14:42:31.628Z,15.70
2019-04-27T14:45:04.588Z,15.50
2019-04-27T14:47:39.658Z,15.60
2019-04-27T14:50:12.409Z,15.50
2019-04-27T14:52:45.388Z,15.50
2019-04-27T14:55:18.647Z,15.50
2019-04-27T14:57:52.216Z,15.70
2019-04-27T15:00:25.067Z,16.00
2019-04-27T15:02:59.138Z,16.40
2019-04-27T15:05:33.827Z,16.60
2019-04-27T15:08:09.749Z,16.70
2019-04-27T15:10:41.648Z,16.70
2019-04-27T15:13:14.547Z,16.60
2019-04-27T15:15:47.703Z,16.70
2019-04-27T15:18:20.648Z,16.90
2019-04-27T15:20:54.011Z,16.80
2019-04-27T15:23:30.809Z,17.00
2019-04-27T15:26:01.687Z,16.90
2019-04-27T15:28:36.269Z,16.80
2019-04-27T15:31:29.253Z,16.70
2019-04-27T15:34:15.876Z,16.50
2019-04-27T15:36:56.754Z,16.60
2019-04-27T15:39:33.867Z,16.70
2019-04-27T15:42:09.834Z,16.60
2019-04-27T15:44:44.183Z,16.70
2019-04-27T15:47:20.088Z,16.70
2019-04-27T15:49:54.548Z,16.50
2019-04-27T15:52:30.079Z,16.50
2019-04-27T15:55:02.898Z,16.50
2019-04-27T15:57:38.130Z,16.60
2019-04-27T16:00:17.610Z,16.60
2019-04-27T16:02:49.292Z,16.50
2019-04-27T16:05:23.463Z,16.20
2019-04-27T16:07:59.261Z,15.90
2019-04-27T16:10:36.511Z,15.60
2019-04-27T16:13:10.022Z,15.70
2019-04-27T16:15:42.028Z,15.60
2019-04-27T16:18:15.288Z,15.40
2019-04-27T16:20:48.554Z,15.30
2019-04-27T16:23:22.168Z,15.30
2019-04-27T16:25:55.147Z,15.40
2019-04-27T16:28:28.968Z,15.40
2019-04-27T16:31:01.888Z,15.30
2019-04-27T16:33:34.770Z,15.00
2019-04-27T16:36:09.705Z,15.10
2019-04-27T16:38:51.528Z,15.10
2019-04-27T16:41:24.476Z,14.90
2019-04-27T16:43:58.146Z,14.70
2019-04-27T16:46:35.034Z,14.80
2019-04-27T16:49:13.533Z,14.80
2019-04-27T16:51:41.707Z,14.70
2019-04-27T16:56:53.085Z,14.60
2019-04-27T16:59:40.679Z,14.40
2019-04-27T17:01:59.228Z,14.10
2019-04-27T17:04:32.331Z,14.00
2019-04-27T17:07:05.251Z,14.00
2019-04-27T17:09:42.164Z,13.80
2019-04-27T17:12:13.051Z,13.80
2019-04-27T17:12:41.343Z,14.70
2019-04-27T17:14:53.932Z,13.80
2019-04-27T17:17:28.395Z,13.80
2019-04-27T17:20:04.851Z,13.70
2019-04-27T17:22:38.835Z,13.70
2019-04-27T17:25:15.413Z,13.60
2019-04-27T17:27:49.585Z,13.50
2019-04-27T17:30:22.442Z,13.40
2019-04-27T17:33:10.599Z,13.30
2019-04-27T17:35:39.560Z,13.30
2019-04-27T17:38:15.711Z,13.30
2019-04-27T17:40:48.751Z,13.10
2019-04-27T17:43:21.908Z,13.10
2019-04-27T17:45:55.646Z,13.10
2019-04-27T17:48:28.968Z,12.90
2019-04-27T17:51:03.502Z,12.80
2019-04-27T17:53:36.469Z,12.70
2019-04-27T17:56:09.957Z,12.80
2019-04-27T17:58:42.869Z,12.80
2019-04-27T18:01:19.126Z,12.70
2019-04-27T18:03:58.818Z,12.40
2019-04-27T18:06:29.557Z,12.10
2019-04-27T18:09:03.437Z,11.80
2019-04-27T18:11:37.311Z,11.50
2019-04-27T18:14:14.430Z,11.60
2019-04-27T18:16:44.401Z,11.80
2019-04-27T18:19:19.030Z,11.80
2019-04-27T18:22:02.911Z,11.60
2019-04-27T18:24:38.039Z,11.40
2019-04-27T18:27:15.031Z,11.40
2019-04-27T18:29:48.646Z,11.50
2019-04-27T18:32:23.501Z,11.70
2019-04-27T18:34:58.463Z,11.30
2019-04-27T18:37:32.170Z,10.80
2019-04-27T18:40:05.051Z,10.70
2019-04-27T18:42:38.530Z,10.30
2019-04-27T18:45:11.830Z,10.30
2019-04-27T18:47:47.991Z,10.10
2019-04-27T18:50:28.169Z,10.20
2019-04-27T18:53:16.481Z,10.30
2019-04-27T18:55:56.804Z,10.20
2019-04-27T18:58:24.145Z,10.30
2019-04-27T19:00:58.300Z,10.30
2019-04-27T19:03:31.816Z,10.20
2019-04-27T19:06:05.355Z,10.30
2019-04-27T19:08:38.578Z,10.30
2019-04-27T19:11:11.737Z,10.40
2019-04-27T19:13:44.523Z,10.50
2019-04-27T19:16:18.711Z,10.50
2019-04-27T19:18:52.657Z,10.40
2019-04-27T19:21:25.698Z,10.40
2019-04-27T19:23:58.670Z,10.20
2019-04-27T19:26:33.090Z,10.30
2019-04-27T19:29:13.788Z,10.20
2019-04-27T19:31:58.650Z,9.90
2019-04-27T19:34:35.032Z,9.80
2019-04-27T19:37:08.308Z,9.60
2019-04-27T19:39:41.368Z,9.90
2019-04-27T19:42:14.337Z,9.70
2019-04-27T19:44:48.102Z,9.50
2019-04-27T19:47:21.096Z,9.30
2019-04-27T19:49:54.110Z,9.30
2019-04-27T19:52:28.249Z,9.30
2019-04-27T19:55:01.371Z,9.20
2019-04-27T19:57:39.219Z,9.00
2019-04-27T20:00:10.403Z,9.00
2019-04-27T20:02:43.470Z,8.80
2019-04-27T20:05:18.630Z,8.90
2019-04-27T20:07:51.330Z,9.10
2019-04-27T20:10:24.471Z,9.10
2019-04-27T20:12:57.499Z,9.10
2019-04-27T20:15:30.550Z,9.10
2019-04-27T20:18:03.557Z,9.10
2019-04-27T20:20:36.658Z,9.00
2019-04-27T20:23:09.812Z,8.90
2019-04-27T20:25:43.051Z,8.80
2019-04-27T20:28:16.251Z,8.90
2019-04-27T20:30:49.370Z,8.90
2019-04-27T20:33:22.418Z,8.80
2019-04-27T20:35:56.138Z,8.60
2019-04-27T20:38:31.599Z,8.60
2019-04-27T20:41:04.332Z,8.40
2019-04-27T20:43:37.280Z,8.30
2019-04-27T20:46:11.739Z,8.30
2019-04-27T20:48:45.754Z,8.40
2019-04-27T20:51:21.270Z,8.70
2019-04-27T20:53:56.022Z,8.80
2019-04-27T20:56:28.978Z,8.60
2019-04-27T20:59:01.889Z,8.80
2019-04-27T21:01:34.950Z,8.90
2019-04-27T21:04:08.311Z,8.70
2019-04-27T21:06:42.910Z,8.80
2019-04-27T21:09:17.933Z,8.70
2019-04-27T21:11:51.050Z,8.70
2019-04-27T21:14:23.910Z,8.80
2019-04-27T21:16:56.891Z,8.70
2019-04-27T21:19:31.223Z,8.30
2019-04-27T21:22:04.571Z,7.90
2019-04-27T21:24:37.811Z,7.90
2019-04-27T21:27:13.004Z,7.90
2019-04-27T21:29:46.811Z,8.00
2019-04-27T21:32:19.831Z,8.00
2019-04-27T21:34:52.730Z,8.00
2019-04-27T21:37:25.754Z,8.20
2019-04-27T21:40:18.235Z,8.30
2019-04-27T21:42:51.344Z,8.30
2019-04-27T21:45:24.888Z,8.50
2019-04-27T21:47:57.928Z,8.50
2019-04-27T21:50:31.638Z,8.40
2019-04-27T21:53:06.630Z,8.40
2019-04-27T21:55:42.075Z,8.20
2019-04-27T21:58:28.158Z,8.00
2019-04-27T22:01:06.890Z,7.90
2019-04-27T22:03:40.089Z,8.00
2019-04-27T22:06:13.130Z,7.90
2019-04-27T22:08:46.029Z,8.00
2019-04-27T22:11:21.762Z,8.20
2019-04-27T22:13:54.469Z,8.20
2019-04-27T22:16:27.430Z,8.10
2019-04-27T22:19:01.970Z,8.00
2019-04-27T22:21:35.031Z,8.20
2019-04-27T22:24:18.549Z,8.10
2019-04-27T22:26:52.248Z,8.40
2019-04-27T22:29:25.208Z,8.50
2019-04-27T22:31:58.356Z,8.70
2019-04-27T22:34:31.358Z,8.40
2019-04-27T22:37:04.388Z,8.50
2019-04-27T22:39:55.255Z,8.40
2019-04-27T22:42:45.867Z,8.20
2019-04-27T22:45:20.307Z,8.30
2019-04-27T22:47:53.272Z,8.40
2019-04-27T22:50:26.588Z,8.10
2019-04-27T22:52:59.668Z,8.40
2019-04-27T22:55:32.668Z,8.00
2019-04-27T22:58:13.369Z,7.90
2019-04-27T23:00:57.014Z,7.70
2019-04-27T23:03:31.590Z,7.80
2019-04-27T23:06:04.428Z,7.80
2019-04-27T23:08:37.528Z,7.60
2019-04-27T23:11:11.568Z,7.50
2019-04-27T23:13:44.569Z,7.60
2019-04-27T23:16:19.196Z,7.90
2019-04-27T23:18:52.256Z,7.90
2019-04-27T23:21:25.228Z,7.70
2019-04-27T23:23:58.308Z,7.80
2019-04-27T23:26:31.601Z,7.90
2019-04-27T23:29:12.963Z,7.70
2019-04-27T23:31:59.310Z,7.50
2019-04-27T23:34:32.187Z,7.30
2019-04-27T23:37:05.358Z,7.50
2019-04-27T23:39:38.428Z,7.60
2019-04-27T23:42:11.638Z,7.80
2019-04-27T23:44:44.788Z,7.90
2019-04-27T23:47:19.621Z,7.70
2019-04-27T23:49:53.328Z,7.60
2019-04-27T23:52:27.749Z,7.80
2019-04-27T23:55:02.352Z,8.10
2019-04-27T23:57:35.435Z,8.10
